ADDS METAR Data INFO
IDs: Format: Raw Decoded Include TAF

Data at: 0734 UTC 18 Oct 2017

KEDE 180725Z AUTO 00000KT 10SM CLR 09/07 A3032 RMK AO2 T00920070
KEDE 180705Z AUTO 00000KT 10SM CLR 09/07 A3032 RMK AO2 T00900068
KEDE 180645Z AUTO 00000KT 10SM CLR 08/07 A3032 RMK AO2 T00840066
KEDE 180625Z AUTO 00000KT 10SM CLR 09/07 A3032 RMK AO2 T00850066
KEDE 180605Z AUTO 00000KT 10SM CLR 09/07 A3032 RMK AO2 T00860065
KEDE 180545Z AUTO 00000KT 10SM CLR 09/07 A3032 RMK AO2 T00920068
KEDE 180525Z AUTO 00000KT 10SM CLR 09/07 A3033 RMK AO2 T00880069
KEDE 180505Z AUTO 00000KT 10SM CLR 08/07 A3033 RMK AO2 T00830065
KEDE 180445Z AUTO 00000KT 10SM CLR 08/07 A3033 RMK AO2 T00840065
KEDE 180425Z AUTO 00000KT 10SM CLR 08/06 A3033 RMK AO2 T00810063
KEDE 180405Z AUTO 00000KT 10SM CLR 08/06 A3034 RMK AO2 T00840063
KEDE 180345Z AUTO 00000KT 10SM CLR 09/06 A3034 RMK AO2 T00850064
KEDE 180325Z AUTO 00000KT 10SM CLR 09/07 A3034 RMK AO2 T00900067
KEDE 180305Z AUTO 00000KT 10SM CLR 09/07 A3035 RMK AO2 T00850065
KEDE 180245Z AUTO 00000KT 10SM CLR 09/07 A3035 RMK AO2 T00870066
KEDE 180225Z AUTO 00000KT 10SM CLR 09/07 A3035 RMK AO2 T00900068
KEDE 180205Z AUTO 00000KT 10SM CLR 09/07 A3034 RMK AO2 T00910070
KEDE 180145Z AUTO 00000KT 10SM CLR 10/07 A3034 RMK AO2 T00960070
KEDE 180125Z AUTO 00000KT 10SM CLR 10/07 A3033 RMK AO2 T00950068
KEDE 180105Z AUTO 00000KT 10SM CLR 10/07 A3033 RMK AO2 T00980068
KEDE 180045Z AUTO 00000KT 10SM CLR 11/07 A3033 RMK AO2 T01060067
KEDE 180025Z AUTO 00000KT 10SM CLR 11/07 A3033 RMK AO2 T01080067
KEDE 180005Z AUTO 00000KT 10SM CLR 11/07 A3032 RMK AO2 T01110070
KEDE 172345Z AUTO 00000KT 10SM CLR 12/07 A3032 RMK AO2 T01150069
KEDE 172325Z AUTO 00000KT 10SM CLR 12/07 A3032 RMK AO2 T01190072
KEDE 172305Z AUTO 00000KT 10SM CLR 12/07 A3031 RMK AO2 T01220073
KEDE 172245Z AUTO 00000KT 10SM CLR 13/07 A3031 RMK AO2 T01310073
KEDE 172225Z AUTO 00000KT 10SM CLR 14/07 A3030 RMK AO2 T01400071
KEDE 172205Z AUTO 00000KT 10SM CLR 15/07 A3030 RMK AO2 T01500067
KEDE 172145Z AUTO 00000KT 10SM CLR 16/07 A3030 RMK AO2 T01580065
KEDE 172125Z AUTO 00000KT 10SM CLR 17/06 A3029 RMK AO2 T01650063
KEDE 172105Z AUTO 04009KT 10SM CLR 17/06 A3029 RMK AO2 T01670057
KEDE 172045Z AUTO 36009KT 10SM CLR 17/06 A3029 RMK AO2 T01710055
KEDE 172025Z AUTO 36006KT 10SM CLR 17/06 A3029 RMK AO2 T01740055
KEDE 172005Z AUTO 36006KT 10SM CLR 18/06 A3029 RMK AO2 T01770056
KEDE 171945Z AUTO 02005KT 10SM CLR 18/06 A3029 RMK AO2 T01790056
KEDE 171925Z AUTO 05007KT 350V080 10SM CLR 18/05 A3029 RMK AO2 T01790054
KEDE 171905Z AUTO 00000KT 10SM CLR 18/06 A3029 RMK AO2 T01780061
KEDE 171845Z AUTO 02007G14KT 350V060 10SM CLR 18/06 A3029 RMK AO2 T01760055
KEDE 171825Z AUTO 04008KT 010V070 10SM CLR 18/07 A3029 RMK AO2 T01790065
KEDE 171805Z AUTO 00000KT 10SM CLR 18/07 A3030 RMK AO2 T01780068
KEDE 171745Z AUTO 03006KT 10SM CLR 17/07 A3030 RMK AO2 T01720067
KEDE 171725Z AUTO 03009G15KT 360V080 10SM CLR 18/08 A3031 RMK AO2 T01750076
KEDE 171705Z AUTO 36013G17KT 10SM CLR 17/07 A3032 RMK AO2 T01730074
KEDE 171645Z AUTO 01005G12KT 10SM CLR 17/09 A3032 RMK AO2 T01700086
KEDE 171625Z AUTO 03008KT 10SM CLR 17/08 A3033 RMK AO2 T01670083
KEDE 171605Z AUTO 01004G16KT 10SM CLR 17/09 A3033 RMK AO2 T01650085
KEDE 171545Z AUTO 01007KT 350V050 10SM CLR 16/09 A3034 RMK AO2 T01590085
KEDE 171525Z AUTO 01008KT 10SM CLR 15/07 A3034 RMK AO2 T01500074
KEDE 171505Z AUTO 01005KT 10SM CLR 15/07 A3034 RMK AO2 T01460074
KEDE 171445Z AUTO 02009KT 10SM CLR 15/07 A3033 RMK AO2 T01470074
KEDE 171425Z AUTO 03005KT 10SM CLR 15/08 A3033 RMK AO2 T01460077
KEDE 171405Z AUTO 00000KT 10SM CLR 14/08 A3033 RMK AO2 T01400079
KEDE 171345Z AUTO 02009KT 10SM CLR 13/09 A3032 RMK AO2 T01340086
KEDE 171325Z AUTO 01007KT 10SM CLR 13/09 A3031 RMK AO2 T01310085
KEDE 171305Z AUTO 01006KT 10SM CLR 12/08 A3031 RMK AO2 T01190082
KEDE 171245Z AUTO 00000KT 10SM CLR 11/08 A3030 RMK AO2 T01110083
KEDE 171225Z AUTO 36008KT 10SM CLR 10/08 A3029 RMK AO2 T01040080
KEDE 171205Z AUTO 00000KT 10SM CLR 10/08 A3028 RMK AO2 T00960075
KEDE 170950Z AUTO 00000KT 10SM CLR 09/07 A3025 RMK AO2 T00860068
KEDE 170905Z AUTO 00000KT 10SM CLR 09/07 A3023 RMK AO2 T00910071
KEDE 170845Z AUTO 00000KT 10SM CLR 10/07 A3022 RMK AO2 T00950071
KEDE 170825Z AUTO 00000KT 10SM CLR 10/07 A3021 RMK AO2 T00950072
KEDE 170805Z AUTO 00000KT 10SM CLR 10/08 A3021 RMK AO2 T00950075
KEDE 170745Z AUTO 00000KT 10SM CLR 09/07 A3020 RMK AO2 T00920074
KEDE 170725Z AUTO 00000KT 10SM CLR 09/08 A3020 RMK AO2 T00930075
KEDE 170705Z AUTO 00000KT 10SM CLR 10/08 A3020 RMK AO2 T00960076
KEDE 170645Z AUTO 00000KT 10SM CLR 10/08 A3021 RMK AO2 T01010078
KEDE 170625Z AUTO 00000KT 10SM CLR 11/08 A3021 RMK AO2 T01050080
KEDE 170605Z AUTO 00000KT 10SM CLR 11/08 A3020 RMK AO2 T01110081
KEDE 170545Z AUTO 00000KT 10SM CLR 11/09 A3020 RMK AO2 T01100085
KEDE 170525Z AUTO 00000KT 10SM CLR 11/09 A3020 RMK AO2 T01070087
KEDE 170505Z AUTO 00000KT 10SM CLR 11/09 A3020 RMK AO2 T01050086
KEDE 170445Z AUTO 00000KT 10SM CLR 11/09 A3020 RMK AO2 T01120091
KEDE 170425Z AUTO 00000KT 10SM CLR 11/09 A3020 RMK AO2 T01130091
KEDE 170405Z AUTO 00000KT 10SM SCT041 12/09 A3020 RMK AO2 T01170094
KEDE 170345Z AUTO 00000KT 10SM SCT041 12/10 A3019 RMK AO2 T01150095
KEDE 170325Z AUTO 00000KT 10SM CLR 12/10 A3019 RMK AO2 T01210097
KEDE 170305Z AUTO 00000KT 10SM CLR 13/10 A3019 RMK AO2 T01300100
KEDE 170245Z AUTO 00000KT 10SM CLR 13/10 A3019 RMK AO2 T01260101
KEDE 170225Z AUTO 00000KT 10SM CLR 13/10 A3018 RMK AO2 T01300103
KEDE 170205Z AUTO 00000KT 10SM CLR 14/10 A3018 RMK AO2 T01370104
KEDE 170145Z AUTO 00000KT 10SM SCT065 SCT090 14/11 A3017 RMK AO2 T01420109
KEDE 170125Z AUTO 01006KT 10SM BKN065 BKN090 15/11 A3017 RMK AO2 T01490111
KEDE 170105Z AUTO 00000KT 10SM OVC065 15/12 A3016 RMK AO2 T01530116
KEDE 170045Z AUTO 00000KT 10SM OVC055 15/12 A3016 RMK AO2 T01530121
KEDE 170025Z AUTO 36006KT 10SM OVC055 15/13 A3015 RMK AO2 T01530129
KEDE 170005Z AUTO 00000KT 10SM OVC055 15/13 A3015 RMK AO2 T01510133
KEDE 162345Z AUTO 00000KT 10SM OVC055 15/13 A3014 RMK AO2 T01510131
KEDE 162325Z AUTO 00000KT 10SM OVC055 15/13 A3013 RMK AO2 T01520130
KEDE 162305Z AUTO 00000KT 10SM OVC049 15/13 A3011 RMK AO2 T01520128
KEDE 162245Z AUTO 36005KT 10SM OVC049 16/13 A3010 RMK AO2 T01550130
KEDE 162225Z AUTO 00000KT 10SM OVC045 16/14 A3009 RMK AO2 T01550138
KEDE 162205Z AUTO 02003KT 10SM OVC043 16/14 A3008 RMK AO2 T01550144
KEDE 162145Z AUTO 00000KT 10SM OVC043 16/15 A3009 RMK AO2 T01560145
KEDE 162125Z AUTO 00000KT 10SM -RA OVC041 16/15 A3008 RMK AO2 T01580146
KEDE 162105Z AUTO 00000KT 10SM -DZ OVC039 16/15 A3007 RMK AO2 T01600145
KEDE 162045Z AUTO 02004KT 10SM DZ OVC037 16/15 A3006 RMK AO2 T01600145
KEDE 162025Z AUTO 01007KT 10SM DZ SCT008 BKN035 OVC046 16/15 A3007 RMK AO2 T01600146
KEDE 162005Z AUTO 36007KT 10SM -DZ SCT010 BKN035 OVC046 16/15 A3006 RMK AO2 T01600147
KEDE 161945Z AUTO 01003KT 2 1/2SM -RA SCT010 OVC015 16/15 A3006 RMK AO2 T01580145